Aérodrome :
LOGIN :

S'inscrire | Disclaimer

   EN    FR    IT 

 










Légende :    VFR   VFR Marginal   IFR   IFR Intensif   IFR Très Intensif
Visi : 
Plafond : 
>= 8 km
>= 3000ft
5 à 8 km
1000 à 3000 ft
1500m à 5 km
500 à 1000 ft
800 à 1500m
200 à 500 ft
< 800m
< 200 ft
Symboles :   Orages  Brouillard  Fortes neiges  Fortes précipitations  Vent > 20 kt
SIGMETs :   Divers  Orages  Givrage  Turbulence  Onde Orograph.  Cendres Volcan.







- Altitude de l'aérodrome : 1325 ft
- Code IATA : EBU
- Voir les cartes d'approche


LFMH - St-Etienne Boutheon

DERNIER METAR :
  • 230930Z AUTO VRB03KT 7000 -RA FEW011/// BKN035/// BKN043/// ///CB 08/07 Q1008 TEMPO VRB20G45KT 1500 TSRAGS

METARs EXPIRÉS :
  • 230900Z AUTO VRB02KT 8000 RA FEW019/// BKN037/// BKN045/// ///CB 08/06 Q1008 TEMPO VRB20G45KT 1500 TSRAGS
  • 230830Z AUTO VRB02KT 9999 -RADZ SCT038/// BKN044/// OVC060/// ///CB 08/06 Q//// TEMPO VRB20G45KT 1500 TSRAGS
  • 230800Z AUTO VRB02KT 9999 -RA BKN040/// OVC049/// ///CB 08/06 Q//// TEMPO 18015G25KT SHRA
  • 230730Z AUTO 27005KT 250V310 9999 -RA BKN042/// OVC058/// ///TCU 08/05 Q//// TEMPO 18015G25KT SHRA
  • 230700Z AUTO 19004KT 150V220 9999 FEW052/// BKN062/// BKN076/// ///CB 11/05 Q//// TEMPO 18015G25KT SHRA

TAF TAF LFMH
Valide du 23 à 09h jusqu'au 24 à 09h UTC


230800Z 2309/2409 27006KT 9999 BKN040 BKN050
PROB40
TEMPO 2309/2321 18015G25KT SHRA FEW030CB BKN035TCU
PROB30
TEMPO 2309/2318 VRB20G45KT 1500 TSRAGS SCT010 BKN020CB
PROB40
TEMPO 2403/2409 4000 RA BKN015
ATIS : +33 4 77 36 17 51
Pas de NOTAMs connus pour ce terrain.
4 SIGMETs publiés pour la FIR Marseille (LFMM) :
 
Orages noyés dans la masse
LFMM SIGMET 8 VALID 231000/231200 LFPW
LFMM MARSEILLE FIR/UIR EMBD TS OBS WI N4330 E00245 - N4545 E00300 - N4545 E00445 - N4415 E00430 - N4300 E00315 TOP FL320 STNR NC=
Turbulence forte
LFMM SIGMET 7 VALID 231000/231300 LFPW
LFMM MARSEILLE FIR/UIR SEV TURB FCST WI N4345 E00245 - N4515 E00245 - N4600 E00345 - N4515 E00545 - N4345 E00530 SFC/FL060 STNR NC=
Orages noyés dans la masse
LFMM SIGMET 6 VALID 230825/231000 LFPW
LFMM MARSEILLE FIR/UIR EMBD TS OBS WI N4330 E00245 - N4600 E00300 - N4600 E00445 - N4430 E00430 - N4300 E00330 TOP FL320 STNR NC=
Turbulence forte
LFMM SIGMET 3 VALID 230700/231000 LFPW
LFMM MARSEILLE FIR/UIR SEV TURB FCST WI N4330 E00245 - N4545 E00300 - N4545 E00530 - N4330 E00630 - N4400 E00415 SFC/FL060 STNR INTSF=



MET'MAP, la Météo Aéronautique d'un coup d'oeil ! - Copyright ORBIFLY Décembre 2007 - Disclaimer

ORBIFLY MET'MAP TEAM :

Programmation & Développement : Alexandra Zaïnal
Conception & Développement : Baudouin d'Aumeries
Co-Programmation & Développement : Marc-Olivier Méhu
Soutien technique & logistique : Manuel Goepfert

Contact : metmap@orbifly.com




SOURCES & CREDITS :

   NOAA